Time;durP1;ratioP1;P1;durP2;ratioP2;P2;SDS_P1;SDS_P2;PMS_P1;PMS_P2;Temp;Humidity;BMP_temperature;BMP_pressure;BME280_temperature;BME280_humidity;BME280_pressure;Samples;Min_cycle;Max_cycle;Signal;HPM_P1;HPM_P2
2022/04/25 00:00:07;;;;;;;23.27;14.43;;;8.80;99.90;;;;;;6215069;23;20001;-87
2022/04/25 00:02:32;;;;;;;22.67;14.63;;;8.90;99.90;;;;;;6214539;23;20000;-88
2022/04/25 00:04:58;;;;;;;26.23;16.23;;;8.90;99.90;;;;;;6188801;23;20001;-88
2022/04/25 00:07:24;;;;;;;24.90;14.50;;;8.90;99.90;;;;;;6214144;23;20004;-88
2022/04/25 00:09:49;;;;;;;25.05;14.82;;;8.90;99.90;;;;;;6215449;23;20421;-88
2022/04/25 00:12:15;;;;;;;25.48;15.85;;;8.90;99.90;;;;;;6188101;23;20012;-88
2022/04/25 00:14:41;;;;;;;23.20;14.75;;;8.90;99.90;;;;;;6215477;23;20001;-88
2022/04/25 00:17:07;;;;;;;24.17;15.18;;;8.90;99.90;;;;;;6187936;23;20059;-88
2022/04/25 00:19:33;;;;;;;25.77;15.40;;;8.80;99.90;;;;;;6188324;23;20008;-88
2022/04/25 00:21:58;;;;;;;24.73;15.20;;;8.80;99.90;;;;;;6214383;23;20072;-88
2022/04/25 00:24:24;;;;;;;29.08;15.98;;;8.70;99.90;;;;;;6214984;23;20473;-87
2022/04/25 00:26:50;;;;;;;23.50;13.82;;;8.70;99.90;;;;;;6214678;23;20000;-87
2022/04/25 00:29:15;;;;;;;23.38;14.80;;;8.80;99.90;;;;;;6214931;23;20332;-88
2022/04/25 00:31:41;;;;;;;23.02;14.18;;;8.80;99.90;;;;;;6215713;23;20335;-88
2022/04/25 00:34:07;;;;;;;25.00;13.98;;;8.80;99.90;;;;;;6214676;23;20059;-87
2022/04/25 00:36:33;;;;;;;22.65;13.95;;;8.80;99.90;;;;;;6214549;23;20012;-88
2022/04/25 00:38:59;;;;;;;21.88;14.07;;;8.80;99.90;;;;;;6215100;23;20004;-88
2022/04/25 00:41:25;;;;;;;22.52;14.25;;;8.90;99.90;;;;;;6213561;23;20406;-88
2022/04/25 00:43:57;;;;;;;22.10;13.75;;;9.00;99.90;;;;;;6250655;22;20019;-90
2022/04/25 00:46:25;;;;;;;24.15;14.98;;;8.90;99.90;;;;;;6274562;22;19995;-90
2022/04/25 00:48:51;;;;;;;22.48;14.48;;;8.90;99.90;;;;;;6275118;22;20032;-90
2022/04/25 00:51:18;;;;;;;24.17;14.20;;;8.80;99.90;;;;;;6247516;22;20414;-89
2022/04/25 00:53:45;;;;;;;21.08;12.73;;;8.80;99.90;;;;;;6242421;23;20058;-89
2022/04/25 00:56:24;;;;;;;20.67;13.32;;;8.80;99.90;;;;;;6242767;23;20004;-89
2022/04/25 00:58:53;;;;;;;20.77;13.85;;;8.80;99.90;;;;;;6243176;23;20001;-89
2022/04/25 01:01:19;;;;;;;23.52;13.90;;;8.90;99.90;;;;;;6244869;22;20011;-89
2022/04/25 01:03:48;;;;;;;25.33;13.85;;;9.00;99.90;;;;;;6244805;22;20482;-90
2022/04/25 01:06:16;;;;;;;22.50;13.55;;;9.00;99.90;;;;;;6244772;22;20016;-90
2022/04/25 01:08:43;;;;;;;21.60;14.18;;;9.00;99.90;;;;;;6245102;23;20023;-89
2022/04/25 01:11:12;;;;;;;21.83;14.18;;;8.90;99.90;;;;;;6244653;22;20449;-88
2022/04/25 01:13:38;;;;;;;26.02;15.93;;;8.80;99.90;;;;;;6242182;23;20012;-89
2022/04/25 01:16:09;;;;;;;27.02;15.70;;;8.80;99.90;;;;;;6244750;22;20000;-90
2022/04/25 01:19:07;;;;;;;27.88;16.08;;;8.90;99.90;;;;;;6242387;23;20075;-91
2022/04/25 01:21:50;;;;;;;25.58;14.73;;;9.00;99.90;;;;;;6244487;22;19996;-89
2022/04/25 01:27:19;;;;;;;25.67;15.85;;;8.90;99.90;;;;;;6244419;23;20334;-89
2022/04/25 01:29:53;;;;;;;26.42;15.65;;;8.90;99.90;;;;;;6243431;23;20007;-90
2022/04/25 01:32:24;;;;;;;29.85;16.52;;;8.90;99.90;;;;;;6244471;22;20000;-89
2022/04/25 01:34:52;;;;;;;27.23;16.58;;;8.90;99.90;;;;;;6243029;23;20004;-90
2022/04/25 01:37:19;;;;;;;37.72;17.85;;;9.00;99.90;;;;;;6243439;22;20039;-90
2022/04/25 01:39:53;;;;;;;36.50;17.73;;;9.10;99.90;;;;;;6243139;23;20431;-89
2022/04/25 01:42:20;;;;;;;28.98;17.40;;;9.10;99.90;;;;;;6244187;22;20000;-89
2022/04/25 01:44:58;;;;;;;31.90;18.40;;;9.10;99.90;;;;;;6241315;22;20083;-90
2022/04/25 01:47:40;;;;;;;;;;;;;;;;;;;;;
2022/04/25 01:50:12;;;;;;;34.90;16.92;;;9.10;99.90;;;;;;6239689;22;20067;-90
2022/04/25 01:52:45;;;;;;;31.40;17.67;;;9.00;99.90;;;;;;6239784;23;20087;-90
2022/04/25 01:55:46;;;;;;;31.83;17.98;;;9.00;99.90;;;;;;6244342;22;20442;-88
2022/04/25 02:01:17;;;;;;;34.78;19.55;;;9.10;99.90;;;;;;6244539;23;20386;-90
2022/04/25 02:03:49;;;;;;;34.72;19.75;;;9.10;99.90;;;;;;6243330;22;20079;-90
2022/04/25 02:06:15;;;;;;;32.80;18.00;;;9.10;99.90;;;;;;6243144;23;20005;-91
2022/04/25 02:08:46;;;;;;;41.55;22.33;;;9.10;99.90;;;;;;6242564;23;20054;-89
2022/04/25 02:11:21;;;;;;;37.33;20.90;;;9.20;99.90;;;;;;6241979;23;20083;-88
2022/04/25 02:13:55;;;;;;;41.00;22.13;;;9.20;99.90;;;;;;6244646;22;19996;-89
2022/04/25 02:16:22;;;;;;;91.82;37.90;;;9.30;99.90;;;;;;6243026;23;20493;-92
2022/04/25 02:18:48;;;;;;;66.45;31.15;;;9.30;99.90;;;;;;6244421;22;20411;-90
2022/04/25 02:21:24;;;;;;;51.55;25.85;;;9.40;99.90;;;;;;6242495;23;20496;-89
2022/04/25 02:24:00;;;;;;;52.33;25.65;;;9.40;99.90;;;;;;6240569;22;20079;-89
2022/04/25 02:26:31;;;;;;;49.13;24.67;;;9.40;99.90;;;;;;6251040;23;20000;-90
2022/04/25 02:28:57;;;;;;;;;;;9.40;99.90;;;;;;6245302;23;20457;-91
2022/04/25 02:31:36;;;;;;;39.92;20.90;;;9.40;99.90;;;;;;6245964;22;20002;-89
2022/04/25 02:34:15;;;;;;;35.92;19.58;;;9.30;99.90;;;;;;6244905;23;20304;-88
2022/04/25 02:36:45;;;;;;;39.75;19.63;;;9.20;99.90;;;;;;6246466;22;20004;-89
2022/04/25 02:39:20;;;;;;;32.33;17.20;;;9.10;99.90;;;;;;6244797;23;20344;-88
2022/04/25 02:41:46;;;;;;;27.23;16.38;;;9.00;99.90;;;;;;6244205;23;20065;-88
2022/04/25 02:44:17;;;;;;;30.27;16.75;;;8.90;99.90;;;;;;6244486;23;20450;-89
2022/04/25 02:46:45;;;;;;;31.73;17.95;;;8.90;99.90;;;;;;6246261;22;20004;-90
2022/04/25 02:49:14;;;;;;;40.88;18.45;;;8.90;99.90;;;;;;6244503;23;20004;-90
2022/04/25 02:51:44;;;;;;;34.13;17.55;;;8.90;99.90;;;;;;6244461;23;20012;-90
2022/04/25 02:54:09;;;;;;;26.60;16.08;;;8.80;99.90;;;;;;6243231;23;20442;-90
2022/04/25 02:56:46;;;;;;;30.35;17.17;;;8.90;99.90;;;;;;6243891;23;20034;-90
2022/04/25 02:59:17;;;;;;;33.38;16.20;;;8.90;99.90;;;;;;6244592;23;20142;-88
2022/04/25 03:01:45;;;;;;;28.33;17.40;;;8.90;99.90;;;;;;6243697;23;20065;-90
2022/04/25 03:04:14;;;;;;;26.38;16.38;;;8.80;99.90;;;;;;6244017;23;20414;-88
2022/04/25 03:06:45;;;;;;;31.83;17.40;;;8.70;99.90;;;;;;6244670;22;20008;-89
2022/04/25 03:09:16;;;;;;;31.55;16.90;;;8.70;99.90;;;;;;6244143;23;20016;-89
2022/04/25 03:11:42;;;;;;;42.55;16.90;;;8.70;99.90;;;;;;6242887;23;20004;-89
2022/04/25 03:14:13;;;;;;;60.85;17.58;;;8.60;99.90;;;;;;6244273;23;20012;-89
2022/04/25 03:16:41;;;;;;;29.48;16.10;;;8.60;99.90;;;;;;6245518;22;20339;-90
2022/04/25 03:19:08;;;;;;;29.80;16.80;;;8.60;99.90;;;;;;6243800;23;20035;-89
2022/04/25 03:21:42;;;;;;;28.70;15.98;;;8.60;99.90;;;;;;6243583;23;20019;-90
2022/04/25 03:24:13;;;;;;;35.15;15.93;;;8.60;99.90;;;;;;6243581;23;20008;-88
2022/04/25 03:26:44;;;;;;;31.30;17.23;;;8.70;99.90;;;;;;6246654;22;20455;-89
2022/04/25 03:29:13;;;;;;;37.20;16.77;;;8.80;99.90;;;;;;6245929;22;20004;-89
2022/04/25 03:31:50;;;;;;;26.02;16.42;;;8.80;99.90;;;;;;6244381;23;20541;-89
2022/04/25 03:34:17;;;;;;;36.72;18.42;;;8.70;99.90;;;;;;6245921;22;20034;-90
2022/04/25 03:36:54;;;;;;;33.05;17.80;;;8.70;99.90;;;;;;6243272;23;20393;-89
2022/04/25 03:39:27;;;;;;;31.98;17.40;;;8.70;99.90;;;;;;6245949;22;20039;-89
2022/04/25 03:41:55;;;;;;;40.30;17.70;;;8.70;99.90;;;;;;6237160;23;20004;-87
2022/04/25 03:44:29;;;;;;;36.25;19.02;;;8.70;99.90;;;;;;6243806;23;20016;-89
2022/04/25 03:46:54;;;;;;;54.85;20.10;;;8.70;99.90;;;;;;6245781;22;20016;-90
2022/04/25 03:49:21;;;;;;;44.92;19.58;;;8.70;99.90;;;;;;6244301;23;20004;-90
2022/04/25 03:51:58;;;;;;;39.08;18.88;;;8.80;99.90;;;;;;6243763;23;20085;-90
2022/04/25 03:57:15;;;;;;;44.53;18.17;;;8.80;99.90;;;;;;6216751;22;20001;-90
2022/04/25 03:59:43;;;;;;;41.97;17.30;;;8.80;99.90;;;;;;6242572;22;20008;-91
2022/04/25 04:02:12;;;;;;;58.20;17.98;;;8.90;99.90;;;;;;6244875;22;20007;-88
2022/04/25 04:04:40;;;;;;;50.40;17.13;;;8.90;99.90;;;;;;6244128;23;20000;-90
2022/04/25 04:07:08;;;;;;;80.32;15.75;;;8.90;99.90;;;;;;6243857;23;20004;-90
2022/04/25 04:09:46;;;;;;;63.90;17.63;;;8.90;99.90;;;;;;6244098;23;20007;-90
2022/04/25 04:12:16;;;;;;;51.08;18.35;;;8.80;99.90;;;;;;6243323;23;20390;-89
2022/04/25 04:14:51;;;;;;;76.70;18.33;;;8.80;99.90;;;;;;6245083;22;20038;-90
2022/04/25 04:17:17;;;;;;;75.93;18.88;;;8.80;99.90;;;;;;6244110;23;20005;-89
2022/04/25 04:19:49;;;;;;;53.78;19.23;;;8.80;99.90;;;;;;6249091;23;19985;-88
2022/04/25 04:22:15;;;;;;;64.22;19.33;;;8.80;99.90;;;;;;6246792;22;20012;-90
2022/04/25 04:24:47;;;;;;;101.72;18.20;;;8.80;99.90;;;;;;6248331;22;20048;-90
2022/04/25 04:27:14;;;;;;;59.00;18.15;;;8.70;99.90;;;;;;6244991;22;20009;-87
2022/04/25 04:29:44;;;;;;;60.80;17.67;;;8.60;99.90;;;;;;6245145;22;20000;-89
2022/04/25 04:32:13;;;;;;;106.35;17.77;;;8.60;99.90;;;;;;6242348;23;20058;-87
2022/04/25 04:34:47;;;;;;;68.97;17.17;;;8.60;99.90;;;;;;6242408;23;20330;-89
2022/04/25 04:37:18;;;;;;;78.70;16.88;;;8.60;99.90;;;;;;6242745;23;20004;-88
2022/04/25 04:39:50;;;;;;;61.42;18.75;;;8.60;99.90;;;;;;6242428;23;20001;-88
2022/04/25 04:43:06;;;;;;;41.53;18.42;;;8.80;99.90;;;;;;6241779;23;20000;-91
2022/04/25 04:45:31;;;;;;;46.67;18.60;;;8.80;99.90;;;;;;6191347;23;20020;-88
2022/04/25 04:47:57;;;;;;;69.35;19.33;;;8.80;99.90;;;;;;6242202;23;20086;-91
2022/04/25 04:50:23;;;;;;;41.80;18.35;;;8.90;99.90;;;;;;6242033;23;20004;-91
2022/04/25 04:52:51;;;;;;;33.40;18.25;;;8.80;99.90;;;;;;6242520;23;20115;-91
2022/04/25 04:55:17;;;;;;;39.38;18.42;;;8.80;99.90;;;;;;6242311;23;20103;-91
2022/04/25 04:57:43;;;;;;;39.90;19.63;;;8.80;99.90;;;;;;6242607;23;20004;-90
2022/04/25 05:00:13;;;;;;;46.63;19.75;;;8.80;99.90;;;;;;6242140;23;20087;-90
2022/04/25 05:03:14;;;;;;;47.60;19.33;;;8.80;99.90;;;;;;6244243;22;20010;-89
2022/04/25 05:06:06;;;;;;;43.42;20.42;;;8.80;99.90;;;;;;6242821;23;20115;-87
2022/04/25 05:08:35;;;;;;;41.38;19.25;;;8.80;99.90;;;;;;6242648;23;20430;-89
2022/04/25 05:11:04;;;;;;;41.28;19.70;;;8.80;99.90;;;;;;6244417;22;20007;-88
2022/04/25 05:13:37;;;;;;;34.00;18.08;;;8.90;99.90;;;;;;6241887;23;20008;-89
2022/04/25 05:16:19;;;;;;;46.15;18.13;;;8.90;99.90;;;;;;6242115;23;20418;-89
2022/04/25 05:18:58;;;;;;;36.17;17.42;;;8.90;99.90;;;;;;6242731;23;20004;-88
2022/04/25 05:21:35;;;;;;;37.03;21.38;;;8.80;99.90;;;;;;6244718;22;20015;-88
2022/04/25 05:24:03;;;;;;;37.35;22.88;;;8.70;99.90;;;;;;6244885;22;20403;-89
2022/04/25 05:26:36;;;;;;;35.70;22.77;;;8.40;99.90;;;;;;6245247;22;20000;-88
2022/04/25 05:29:22;;;;;;;33.40;20.25;;;8.40;99.90;;;;;;6243412;23;20004;-88
2022/04/25 05:31:54;;;;;;;38.00;21.45;;;8.40;99.90;;;;;;6247755;22;20005;-89
2022/04/25 05:34:27;;;;;;;36.17;21.70;;;8.40;99.90;;;;;;6246159;22;20443;-88
2022/04/25 05:36:56;;;;;;;33.78;22.20;;;8.40;99.90;;;;;;6243207;23;20020;-86
2022/04/25 05:39:30;;;;;;;35.90;20.45;;;8.40;99.90;;;;;;6237686;23;20405;-89
2022/04/25 05:42:08;;;;;;;35.30;21.02;;;8.60;99.90;;;;;;6242727;23;20000;-89
2022/04/25 05:44:37;;;;;;;32.97;20.67;;;8.70;99.90;;;;;;6233656;23;20005;-88
2022/04/25 05:47:09;;;;;;;32.78;21.58;;;8.90;99.90;;;;;;6242846;23;20008;-89
2022/04/25 05:52:36;;;;;;;32.90;21.55;;;9.10;99.90;;;;;;6244394;23;20062;-90
2022/04/25 05:55:12;;;;;;;30.83;19.35;;;9.20;99.90;;;;;;6243037;23;20031;-90
2022/04/25 05:57:48;;;;;;;36.17;22.73;;;9.30;99.90;;;;;;6242787;23;20008;-88
2022/04/25 06:00:20;;;;;;;34.25;21.45;;;9.40;99.90;;;;;;6245086;22;19997;-90
2022/04/25 06:02:49;;;;;;;33.33;21.65;;;9.40;99.90;;;;;;6246803;22;20071;-90
2022/04/25 06:05:53;;;;;;;32.70;20.00;;;9.60;99.90;;;;;;6244272;23;20418;-90
2022/04/25 06:08:22;;;;;;;40.63;22.13;;;9.70;99.90;;;;;;6245307;23;20004;-90
2022/04/25 06:11:03;;;;;;;34.25;20.30;;;9.70;99.90;;;;;;6246726;22;20023;-91
2022/04/25 06:13:32;;;;;;;;;;;9.70;99.90;;;;;;6253621;22;20000;-91
2022/04/25 06:16:02;;;;;;;37.70;21.00;;;9.70;99.90;;;;;;6251385;23;19899;-92
2022/04/25 06:18:37;;;;;;;36.72;21.13;;;9.70;99.90;;;;;;6244358;22;20079;-92
2022/04/25 06:21:03;;;;;;;35.53;21.27;;;9.80;99.90;;;;;;6245049;23;20039;-93
2022/04/25 06:23:43;;;;;;;36.47;21.58;;;9.90;99.90;;;;;;6247029;23;20000;-91
2022/04/25 06:26:17;;;;;;;32.35;21.35;;;9.90;99.90;;;;;;6243938;23;20008;-91
2022/04/25 06:28:56;;;;;;;32.47;20.88;;;9.80;99.90;;;;;;6244999;23;20004;-92
2022/04/25 06:31:41;;;;;;;32.33;21.15;;;9.70;99.90;;;;;;6244617;23;20008;-92
2022/04/25 06:34:17;;;;;;;36.75;22.35;;;9.80;99.90;;;;;;6244211;23;20387;-91
2022/04/25 06:40:07;;;;;;;35.35;21.42;;;9.90;99.90;;;;;;6246048;23;20278;-91
2022/04/25 06:42:33;;;;;;;34.03;21.92;;;10.00;99.90;;;;;;6238180;22;19996;-87
2022/04/25 06:44:59;;;;;;;32.10;21.52;;;10.10;99.90;;;;;;6245299;23;20031;-88
2022/04/25 06:47:24;;;;;;;35.28;23.52;;;10.10;99.90;;;;;;6246395;22;20007;-88
2022/04/25 06:49:54;;;;;;;33.67;21.23;;;10.10;99.90;;;;;;6245367;23;20015;-88
2022/04/25 06:52:20;;;;;;;29.75;20.30;;;10.20;99.90;;;;;;6246411;22;20077;-88
2022/04/25 06:54:46;;;;;;;33.50;21.25;;;10.40;99.90;;;;;;6215075;23;20084;-87
2022/04/25 06:57:12;;;;;;;27.77;20.02;;;10.40;99.90;;;;;;6214937;23;20015;-90
2022/04/25 06:59:38;;;;;;;33.65;21.35;;;10.40;99.90;;;;;;6214976;23;20001;-87
2022/04/25 07:02:04;;;;;;;30.23;19.92;;;10.30;99.90;;;;;;6216695;23;20011;-88
2022/04/25 07:04:29;;;;;;;34.42;20.67;;;10.30;99.90;;;;;;6215522;23;20004;-88
2022/04/25 07:06:55;;;;;;;30.63;21.02;;;10.40;99.90;;;;;;6216907;23;20004;-87
2022/04/25 07:09:21;;;;;;;31.55;20.90;;;10.50;99.90;;;;;;6214615;23;20009;-87
2022/04/25 07:11:47;;;;;;;28.60;19.23;;;10.50;99.90;;;;;;6216847;23;20023;-87
2022/04/25 07:14:14;;;;;;;30.45;19.90;;;10.50;99.90;;;;;;6216534;23;20052;-88
2022/04/25 07:16:42;;;;;;;29.95;19.50;;;10.50;99.90;;;;;;6215933;23;20080;-88
2022/04/25 07:19:07;;;;;;;28.42;19.65;;;10.50;99.90;;;;;;6214730;23;20004;-88
2022/04/25 07:29:48;;;;;;;28.00;19.05;;;10.40;99.90;;;;;;6216087;23;20062;-88
2022/04/25 07:32:15;;;;;;;27.00;19.05;;;10.70;99.90;;;;;;6214513;23;20131;-88
2022/04/25 07:34:42;;;;;;;31.10;21.58;;;10.80;99.90;;;;;;6216141;23;20445;-89
2022/04/25 07:37:08;;;;;;;31.75;20.63;;;11.00;99.90;;;;;;6214068;23;20051;-86
2022/04/25 07:39:33;;;;;;;29.40;20.00;;;11.10;99.90;;;;;;6216063;23;20376;-87
2022/04/25 07:41:59;;;;;;;32.10;21.33;;;10.90;99.90;;;;;;6215736;23;20012;-87
2022/04/25 07:44:26;;;;;;;30.52;21.25;;;11.00;99.90;;;;;;6215608;23;20008;-87
2022/04/25 07:46:52;;;;;;;29.42;19.67;;;11.00;99.90;;;;;;6214551;23;20005;-87
2022/04/25 07:49:17;;;;;;;29.27;20.52;;;11.00;99.90;;;;;;6215816;23;20079;-87
2022/04/25 07:51:43;;;;;;;29.52;20.73;;;11.10;99.90;;;;;;6216117;23;19997;-88
2022/04/25 07:54:09;;;;;;;32.60;21.00;;;11.30;99.90;;;;;;6214008;23;20000;-87
2022/04/25 07:56:36;;;;;;;27.75;19.17;;;11.30;99.90;;;;;;6213804;23;20185;-89
2022/04/25 07:59:02;;;;;;;27.95;19.48;;;11.40;99.90;;;;;;6215637;23;20141;-87
2022/04/25 08:01:29;;;;;;;28.83;19.45;;;11.50;99.90;;;;;;6214032;23;19996;-87
2022/04/25 08:03:55;;;;;;;32.72;19.60;;;11.30;99.90;;;;;;6214116;23;20498;-88
2022/04/25 08:06:21;;;;;;;30.88;21.38;;;11.30;99.90;;;;;;6213408;23;20032;-87
2022/04/25 08:08:54;;;;;;;27.35;19.98;;;11.40;99.90;;;;;;6217474;23;20001;-87
2022/04/25 08:11:20;;;;;;;32.55;19.63;;;11.50;99.90;;;;;;6215678;23;20400;-89
2022/04/25 08:19:16;;;;;;;27.30;18.42;;;11.60;99.90;;;;;;6216601;23;20010;-88
2022/04/25 08:21:43;;;;;;;28.05;18.52;;;11.50;99.90;;;;;;6213955;23;20142;-87
2022/04/25 08:24:10;;;;;;;30.17;19.08;;;11.40;99.90;;;;;;6215591;23;20058;-87
2022/04/25 08:26:36;;;;;;;28.17;19.33;;;11.40;99.90;;;;;;6215633;23;20024;-87
2022/04/25 08:29:02;;;;;;;29.67;20.17;;;11.50;99.90;;;;;;6215878;23;20449;-89
2022/04/25 08:31:28;;;;;;;28.55;20.05;;;11.40;99.90;;;;;;6215716;23;20003;-87
2022/04/25 08:33:55;;;;;;;28.48;18.85;;;11.40;99.90;;;;;;6216060;23;20007;-87
2022/04/25 08:36:22;;;;;;;28.55;20.38;;;11.50;99.90;;;;;;6216205;23;20011;-87
2022/04/25 08:38:48;;;;;;;27.48;18.83;;;11.60;99.90;;;;;;6214523;23;20012;-86
2022/04/25 08:41:17;;;;;;;29.77;19.60;;;11.90;99.90;;;;;;6215538;23;19996;-88
2022/04/25 08:43:43;;;;;;;29.35;19.38;;;12.10;99.90;;;;;;6213823;23;20013;-88
2022/04/25 08:46:10;;;;;;;28.63;19.48;;;12.20;99.90;;;;;;6215748;23;20004;-87
2022/04/25 08:48:39;;;;;;;27.10;18.48;;;12.10;99.90;;;;;;6215689;23;20310;-85
2022/04/25 08:51:05;;;;;;;27.08;19.00;;;12.10;99.90;;;;;;6203168;23;20011;-88
2022/04/25 08:53:32;;;;;;;30.27;18.65;;;12.10;99.90;;;;;;6213887;23;20391;-87
2022/04/25 08:56:02;;;;;;;28.98;18.85;;;12.10;99.90;;;;;;6215423;23;20431;-86
2022/04/25 08:58:29;;;;;;;27.92;19.48;;;12.10;99.90;;;;;;6215453;23;20001;-87
2022/04/25 09:00:54;;;;;;;27.75;19.58;;;12.10;99.90;;;;;;6215239;23;20051;-87
2022/04/25 09:03:20;;;;;;;28.08;19.50;;;12.10;99.90;;;;;;6214062;23;20052;-86
2022/04/25 09:05:46;;;;;;;29.50;18.90;;;12.20;99.90;;;;;;6213203;23;20004;-87
2022/04/25 09:08:12;;;;;;;31.25;20.70;;;12.30;99.90;;;;;;6214213;23;20008;-86
2022/04/25 09:10:42;;;;;;;25.80;17.70;;;12.50;99.90;;;;;;6214698;23;20004;-87
2022/04/25 09:13:10;;;;;;;27.55;18.58;;;12.60;99.90;;;;;;6215518;23;20009;-87
2022/04/25 09:15:36;;;;;;;29.48;18.50;;;12.80;99.90;;;;;;6215674;23;20080;-88
2022/04/25 09:18:02;;;;;;;25.45;17.45;;;12.80;99.90;;;;;;6215115;23;20501;-85
2022/04/25 09:20:29;;;;;;;26.15;17.08;;;12.90;99.90;;;;;;6213654;23;20001;-87
2022/04/25 09:22:55;;;;;;;22.58;16.45;;;13.00;99.90;;;;;;6215132;23;19997;-87
2022/04/25 09:25:21;;;;;;;22.13;15.05;;;13.10;99.90;;;;;;6215261;23;19997;-86
2022/04/25 09:27:47;;;;;;;24.98;15.68;;;13.10;99.90;;;;;;6213692;23;20012;-87
2022/04/25 09:30:14;;;;;;;24.63;16.05;;;13.10;99.90;;;;;;6215536;23;20012;-87
2022/04/25 09:32:40;;;;;;;18.90;12.25;;;12.90;99.90;;;;;;6213978;23;20028;-90
2022/04/25 09:35:25;;;;;;;20.10;12.93;;;12.80;99.90;;;;;;6214105;23;20008;-88
2022/04/25 09:37:51;;;;;;;22.42;13.10;;;12.90;99.90;;;;;;6215844;23;20001;-86
2022/04/25 09:40:22;;;;;;;21.30;13.38;;;13.20;99.90;;;;;;6215737;23;20324;-87
2022/04/25 09:43:03;;;;;;;18.45;12.32;;;13.50;99.90;;;;;;6217613;23;20020;-87
2022/04/25 09:45:29;;;;;;;;;;;13.90;99.90;;;;;;6218825;23;20021;-87
2022/04/25 09:47:55;;;;;;;19.95;13.70;;;14.20;99.90;;;;;;6217737;23;19907;-86
2022/04/25 09:50:21;;;;;;;17.27;12.57;;;14.50;99.90;;;;;;6217214;23;20442;-88
2022/04/25 09:52:55;;;;;;;16.08;10.00;;;14.90;99.90;;;;;;6217446;23;20008;-88
2022/04/25 09:55:23;;;;;;;16.48;11.18;;;15.40;99.90;;;;;;6217656;23;20004;-87
2022/04/25 09:57:50;;;;;;;14.38;10.02;;;15.60;96.30;;;;;;6215632;23;20427;-87
2022/04/25 10:00:38;;;;;;;16.77;10.82;;;15.60;95.60;;;;;;6215713;23;20000;-88
2022/04/25 10:03:07;;;;;;;13.25;9.77;;;15.60;95.80;;;;;;6217048;23;20005;-88
2022/04/25 10:05:48;;;;;;;13.50;9.93;;;15.70;94.30;;;;;;6220106;23;20020;-88
2022/04/25 10:08:18;;;;;;;14.50;9.43;;;15.80;93.90;;;;;;6218150;23;20005;-88
2022/04/25 10:10:48;;;;;;;13.77;10.30;;;15.90;94.30;;;;;;6217693;23;19997;-87
2022/04/25 10:13:14;;;;;;;13.52;9.88;;;16.30;93.50;;;;;;6215688;23;20008;-85
2022/04/25 10:15:42;;;;;;;11.68;8.95;;;16.40;90.50;;;;;;6216273;23;20008;-87
2022/04/25 10:18:09;;;;;;;14.00;9.10;;;16.20;88.60;;;;;;6215926;23;20008;-87
2022/04/25 10:20:36;;;;;;;12.65;9.40;;;16.10;91.00;;;;;;6215824;23;20004;-87
2022/04/25 10:23:10;;;;;;;12.13;9.70;;;16.20;91.40;;;;;;6215626;23;20081;-86
2022/04/25 10:25:38;;;;;;;13.93;9.07;;;16.50;84.40;;;;;;6217888;23;20004;-86
2022/04/25 10:28:08;;;;;;;12.93;8.77;;;16.80;84.40;;;;;;6217655;23;20004;-87
2022/04/25 10:30:36;;;;;;;12.82;8.85;;;17.10;83.20;;;;;;6220989;23;20004;-86
2022/04/25 10:33:21;;;;;;;11.68;7.97;;;17.30;77.50;;;;;;6223687;23;20447;-86
2022/04/25 10:35:52;;;;;;;11.63;7.63;;;17.50;71.30;;;;;;6223618;23;20005;-86
2022/04/25 10:38:49;;;;;;;10.67;7.70;;;17.70;69.90;;;;;;6223853;23;20008;-86
2022/04/25 10:44:17;;;;;;;9.90;7.85;;;16.90;71.30;;;;;;6223014;23;20023;-87
2022/04/25 10:47:05;;;;;;;10.73;8.10;;;16.90;69.40;;;;;;6217045;23;20004;-87
2022/04/25 10:49:38;;;;;;;8.88;7.20;;;17.10;70.40;;;;;;6215159;23;20000;-87
2022/04/25 10:52:26;;;;;;;12.07;8.48;;;16.90;70.80;;;;;;6217039;23;19996;-86
2022/04/25 10:54:52;;;;;;;10.07;7.47;;;16.20;73.90;;;;;;6214875;23;20007;-87
2022/04/25 10:57:18;;;;;;;10.63;7.95;;;15.90;77.80;;;;;;6215531;23;20095;-86
2022/04/25 10:59:45;;;;;;;10.25;7.70;;;16.20;79.90;;;;;;6215752;23;20109;-87
2022/04/25 11:02:27;;;;;;;10.43;7.43;;;16.40;80.70;;;;;;6215978;23;20055;-87
2022/04/25 11:05:11;;;;;;;11.02;6.78;;;16.10;82.40;;;;;;6214623;23;20045;-86
2022/04/25 11:07:38;;;;;;;8.57;6.10;;;15.90;85.00;;;;;;6216313;23;20008;-86
2022/04/25 11:10:05;;;;;;;7.93;6.15;;;15.70;86.80;;;;;;6215973;23;20067;-87
2022/04/25 11:12:57;;;;;;;6.25;5.22;;;15.60;87.90;;;;;;6216176;23;20015;-88
2022/04/25 11:15:46;;;;;;;5.82;4.88;;;15.30;87.70;;;;;;6216793;23;20015;-87
2022/04/25 11:18:30;;;;;;;6.43;4.20;;;15.10;90.30;;;;;;6219838;23;20027;-87
2022/04/25 11:21:07;;;;;;;5.47;4.25;;;14.90;89.30;;;;;;6224060;23;20071;-88
2022/04/25 11:23:43;;;;;;;5.22;4.10;;;14.50;89.90;;;;;;6222369;23;20004;-86
2022/04/25 11:26:11;;;;;;;4.82;4.05;;;14.30;91.70;;;;;;6221175;23;20007;-87
2022/04/25 11:28:57;;;;;;;4.47;3.92;;;14.10;93.40;;;;;;6219440;23;20067;-88
2022/04/25 11:31:28;;;;;;;7.82;4.20;;;14.00;97.10;;;;;;6216850;23;20004;-87
2022/04/25 11:33:56;;;;;;;5.47;3.90;;;13.90;99.90;;;;;;6215914;23;20060;-87
2022/04/25 11:36:23;;;;;;;6.13;4.40;;;13.90;99.90;;;;;;6216686;23;20454;-86
2022/04/25 11:41:37;;;;;;;6.82;4.25;;;13.70;99.90;;;;;;6228577;23;20342;-87
2022/04/25 11:44:07;;;;;;;6.35;4.20;;;13.60;99.90;;;;;;6227515;23;20012;-87
2022/04/25 11:46:35;;;;;;;5.00;3.47;;;13.60;99.90;;;;;;6223433;23;20481;-86
2022/04/25 11:49:02;;;;;;;5.30;3.28;;;13.80;99.90;;;;;;6223434;23;20013;-88
2022/04/25 11:51:30;;;;;;;4.47;3.70;;;14.10;99.90;;;;;;6223351;23;20005;-87
2022/04/25 11:54:01;;;;;;;5.10;3.85;;;14.40;99.90;;;;;;6222632;23;20001;-87
2022/04/25 11:56:28;;;;;;;5.15;3.90;;;14.60;99.90;;;;;;6221521;23;20031;-87
2022/04/25 11:58:55;;;;;;;5.28;3.60;;;14.80;99.90;;;;;;6222430;23;20011;-87
2022/04/25 12:01:38;;;;;;;4.68;3.25;;;15.10;99.90;;;;;;6226637;23;20008;-88
2022/04/25 12:04:19;;;;;;;4.15;3.33;;;15.60;99.90;;;;;;6223297;23;20000;-87
2022/04/25 12:06:53;;;;;;;5.05;4.55;;;15.60;97.90;;;;;;6217947;23;20027;-87
2022/04/25 12:17:43;;;;;;;6.38;4.53;;;15.70;99.10;;;;;;6219408;23;20015;-86
2022/04/25 12:20:15;;;;;;;6.30;4.30;;;16.00;92.70;;;;;;6222971;23;20007;-87
2022/04/25 12:22:55;;;;;;;5.38;4.13;;;16.30;95.10;;;;;;6221417;23;20138;-87
2022/04/25 12:25:28;;;;;;;4.68;4.15;;;16.30;93.60;;;;;;6223360;23;20366;-86
2022/04/25 12:28:17;;;;;;;5.72;3.85;;;16.50;92.90;;;;;;6222333;23;20435;-86
2022/04/25 12:30:53;;;;;;;7.10;4.10;;;16.80;91.00;;;;;;6220993;23;20013;-87
2022/04/25 12:33:25;;;;;;;5.15;3.80;;;16.80;87.60;;;;;;6221955;23;20083;-87
2022/04/25 12:36:18;;;;;;;5.25;3.85;;;16.90;86.70;;;;;;6223627;23;20439;-88
2022/04/25 12:38:52;;;;;;;6.28;3.90;;;16.90;81.40;;;;;;6221363;23;20019;-87
2022/04/25 12:41:31;;;;;;;4.47;3.50;;;16.80;78.10;;;;;;6221123;23;19997;-87
2022/04/25 12:44:12;;;;;;;4.68;3.58;;;16.50;81.80;;;;;;6217622;22;20017;-90
2022/04/25 12:46:45;;;;;;;4.55;3.80;;;16.10;79.80;;;;;;6218378;23;19993;-89
2022/04/25 12:49:12;;;;;;;5.50;2.85;;;16.00;80.80;;;;;;6214247;23;20005;-88
2022/04/25 12:51:41;;;;;;;6.22;4.07;;;16.00;82.70;;;;;;6213777;23;20442;-90
2022/04/25 12:54:19;;;;;;;3.80;3.15;;;15.90;83.40;;;;;;6214068;23;20005;-90
2022/04/25 12:56:46;;;;;;;4.03;3.05;;;15.80;79.70;;;;;;6212296;23;20001;-87
2022/04/25 12:59:11;;;;;;;6.30;4.30;;;15.60;81.10;;;;;;6214327;23;19996;-89
2022/04/25 13:01:37;;;;;;;3.78;3.25;;;15.30;82.60;;;;;;6214638;23;20007;-90
2022/04/25 13:04:19;;;;;;;6.85;3.78;;;15.10;82.30;;;;;;6212634;23;20331;-91
2022/04/25 13:06:48;;;;;;;9.70;4.40;;;14.90;85.80;;;;;;6214645;23;20303;-90
2022/04/25 13:09:20;;;;;;;5.13;3.85;;;15.00;88.60;;;;;;6213067;23;20028;-90
2022/04/25 13:11:52;;;;;;;3.75;3.35;;;15.60;83.90;;;;;;6212982;23;20005;-90
2022/04/25 13:14:25;;;;;;;4.28;3.53;;;16.10;82.40;;;;;;6214638;23;20009;-90
2022/04/25 13:16:51;;;;;;;4.70;3.60;;;16.50;77.20;;;;;;6212584;23;20001;-90
2022/04/25 13:19:20;;;;;;;5.03;3.70;;;16.80;74.50;;;;;;6217585;23;20008;-89
2022/04/25 13:22:09;;;;;;;6.80;3.75;;;17.10;71.00;;;;;;6213766;23;20005;-90
2022/04/25 13:24:51;;;;;;;6.75;4.00;;;16.90;71.70;;;;;;6213031;23;20427;-90
2022/04/25 13:27:22;;;;;;;5.88;3.28;;;17.40;70.70;;;;;;6215435;23;20020;-90
2022/04/25 13:29:51;;;;;;;3.97;3.40;;;18.00;69.00;;;;;;6213538;23;20261;-87
2022/04/25 13:32:23;;;;;;;3.97;3.40;;;18.40;63.30;;;;;;6213752;23;20377;-89
2022/04/25 13:34:55;;;;;;;4.03;3.63;;;18.60;62.30;;;;;;6213212;23;20049;-91
2022/04/25 13:37:24;;;;;;;6.28;4.07;;;18.50;61.40;;;;;;6211948;23;20005;-91
2022/04/25 13:39:52;;;;;;;7.20;4.03;;;18.80;62.20;;;;;;6213034;23;20008;-91